Time;durP1;ratioP1;P1;durP2;ratioP2;P2;SDS_P1;SDS_P2;PMS_P1;PMS_P2;Temp;Humidity;BMP_temperature;BMP_pressure;BME280_temperature;BME280_humidity;BME280_pressure;Samples;Min_cycle;Max_cycle;Signal;HPM_P1;HPM_P2
2024/01/08 05:38:43;;;;;;;20.73;8.18;;;;;;;-3.97;100.00;98234.41;4537115;31;77556;-77
2024/01/08 05:41:12;;;;;;;7.60;5.50;;;;;;;-3.97;100.00;98234.41;4529134;31;20156;-77
2024/01/08 05:43:41;;;;;;;16.48;7.07;;;;;;;-4.42;100.00;98225.03;4529644;31;20373;-77
2024/01/08 05:46:10;;;;;;;4.62;3.15;;;;;;;-4.44;100.00;98231.94;4543194;31;20114;-77
2024/01/08 05:48:44;;;;;;;;;;;;;;;-4.42;100.00;98222.47;4542523;31;20095;-77
2024/01/08 05:51:14;;;;;;;17.77;11.70;;;;;;;-4.50;100.00;98238.94;4544507;31;20002;-76
2024/01/08 05:53:42;;;;;;;8.60;5.35;;;;;;;-4.48;100.00;98246.53;4532322;31;20095;-76
2024/01/08 05:56:12;;;;;;;14.07;7.57;;;;;;;-4.49;100.00;98245.72;4529084;31;20508;-77
2024/01/08 05:58:39;;;;;;;13.90;7.90;;;;;;;-4.52;100.00;98245.84;4541611;31;20114;-77
2024/01/08 06:01:07;;;;;;;12.05;5.82;;;;;;;-4.50;100.00;98244.03;4544172;31;20150;-76
2024/01/08 06:03:34;;;;;;;6.45;3.15;;;;;;;-4.51;100.00;98256.88;4533584;31;20075;-76
2024/01/08 06:06:02;;;;;;;14.68;6.43;;;;;;;-4.56;100.00;98272.38;4528481;31;20547;-77
2024/01/08 06:08:29;;;;;;;16.40;6.20;;;;;;;-4.60;100.00;98250.41;4532687;31;20140;-77
2024/01/08 06:10:57;;;;;;;9.30;4.75;;;;;;;-4.59;100.00;98257.16;4528133;31;20122;-77
2024/01/08 06:13:27;;;;;;;22.27;8.60;;;;;;;-4.56;100.00;98259.59;4530720;31;20091;-77
2024/01/08 06:15:55;;;;;;;10.00;5.40;;;;;;;-4.61;100.00;98265.78;4535900;31;20122;-74
2024/01/08 06:18:22;;;;;;;6.50;4.32;;;;;;;-4.56;100.00;98277.50;4540963;31;20488;-74
2024/01/08 06:20:50;;;;;;;8.77;4.78;;;;;;;-4.56;100.00;98264.72;4536748;31;20533;-74
2024/01/08 06:23:18;;;;;;;12.70;6.50;;;;;;;-4.53;100.00;98277.38;4536045;31;20115;-74
2024/01/08 06:25:45;;;;;;;4.03;2.83;;;;;;;-4.54;100.00;98280.84;4535516;31;20156;-75
2024/01/08 06:28:14;;;;;;;16.08;7.22;;;;;;;-4.60;100.00;98275.09;4536221;31;20103;-75
2024/01/08 06:30:45;;;;;;;8.00;3.90;;;;;;;-4.61;100.00;98281.94;4531961;31;20595;-74
2024/01/08 06:33:12;;;;;;;5.35;2.37;;;;;;;-4.59;100.00;98295.50;4527975;31;20158;-73
2024/01/08 06:35:43;;;;;;;3.53;3.00;;;;;;;-4.59;100.00;98294.66;4518196;31;20087;-75
2024/01/08 06:38:13;;;;;;;7.93;4.07;;;;;;;-4.57;100.00;98305.66;4536051;31;20913;-74
2024/01/08 06:40:41;;;;;;;7.35;2.55;;;;;;;-4.58;100.00;98314.25;4534979;31;20605;-74
2024/01/08 06:43:07;;;;;;;8.38;4.37;;;;;;;-4.54;100.00;98314.06;4531891;31;20099;-76
2024/01/08 06:45:34;;;;;;;9.13;4.10;;;;;;;-4.49;100.00;98313.91;4542769;31;20513;-76
2024/01/08 06:48:02;;;;;;;8.18;3.65;;;;;;;-4.52;100.00;98319.13;4537694;31;20160;-78
2024/01/08 06:50:29;;;;;;;9.55;5.07;;;;;;;-4.50;100.00;98318.16;4519411;31;20154;-76
2024/01/08 06:52:57;;;;;;;3.40;1.65;;;;;;;-4.45;100.00;98320.59;4526825;31;20122;-76
2024/01/08 06:55:24;;;;;;;7.40;2.90;;;;;;;-4.43;100.00;98323.09;4518856;31;20555;-76
2024/01/08 06:57:52;;;;;;;15.27;7.62;;;;;;;-4.36;100.00;98330.50;4516265;31;20138;-77
2024/01/08 07:00:23;;;;;;;4.53;2.78;;;;;;;-4.32;100.00;98328.66;4521933;31;20103;-77
2024/01/08 07:02:52;;;;;;;14.55;13.07;;;;;;;-4.30;100.00;98332.81;4517094;31;20515;-76
2024/01/08 07:05:23;;;;;;;5.68;5.15;;;;;;;-4.26;100.00;98337.81;4530529;31;20115;-75
2024/01/08 07:07:52;;;;;;;2.65;2.37;;;;;;;-4.30;100.00;98349.88;4529382;31;20152;-77
2024/01/08 07:10:20;;;;;;;9.75;3.70;;;;;;;-4.23;100.00;98346.22;4521609;31;20155;-75
2024/01/08 07:12:48;;;;;;;7.05;2.53;;;;;;;-4.24;100.00;98329.19;4523214;31;20490;-76
2024/01/08 07:15:37;;;;;;;11.12;6.25;;;;;;;-4.16;100.00;98342.53;4521128;31;20140;-75
2024/01/08 07:18:08;;;;;;;8.00;3.58;;;;;;;-4.14;100.00;98342.50;4520654;31;20626;-75
2024/01/08 07:20:39;;;;;;;8.82;5.15;;;;;;;-4.17;100.00;98348.53;4525274;31;20082;-75
2024/01/08 07:23:08;;;;;;;5.82;1.80;;;;;;;-4.10;100.00;98352.56;4531492;31;20088;-76
2024/01/08 07:25:42;;;;;;;6.32;3.60;;;;;;;-4.08;100.00;98377.25;4521635;31;20100;-76
2024/01/08 07:28:11;;;;;;;2.92;1.25;;;;;;;-4.14;100.00;98380.84;4522078;31;20849;-76
2024/01/08 07:30:42;;;;;;;6.25;3.42;;;;;;;-4.07;100.00;98382.31;4518527;31;20095;-75
2024/01/08 07:33:11;;;;;;;3.37;1.00;;;;;;;-4.03;100.00;98390.69;4528159;31;20126;-76
2024/01/08 07:35:38;;;;;;;4.87;2.92;;;;;;;-3.97;100.00;98393.03;4530534;31;20106;-78
2024/01/08 07:38:05;;;;;;;2.28;1.23;;;;;;;-3.88;100.00;98390.13;4525002;31;20180;-82
2024/01/08 07:40:33;;;;;;;4.40;3.00;;;;;;;-3.88;100.00;98394.44;4528316;31;20103;-77
2024/01/08 07:43:00;;;;;;;4.80;3.22;;;;;;;-3.91;100.00;98397.94;4516021;31;20099;-77
2024/01/08 07:45:27;;;;;;;7.78;3.80;;;;;;;-3.89;100.00;98411.53;4516141;31;20489;-75
2024/01/08 07:47:57;;;;;;;3.92;2.95;;;;;;;-3.87;100.00;98408.91;4516082;31;20422;-76
2024/01/08 07:50:26;;;;;;;7.87;4.37;;;;;;;-3.83;100.00;98413.84;4514689;31;20536;-75
2024/01/08 07:52:53;;;;;;;1.92;1.10;;;;;;;-3.81;100.00;98422.31;4508830;31;20475;-77
2024/01/08 07:55:20;;;;;;;8.65;4.43;;;;;;;-3.75;100.00;98422.06;4531180;31;20088;-76
2024/01/08 07:57:48;;;;;;;4.65;2.65;;;;;;;-3.68;100.00;98425.25;4527523;31;20118;-77
2024/01/08 08:00:15;;;;;;;10.32;4.57;;;;;;;-3.75;100.00;98436.59;4527008;31;20138;-76
2024/01/08 08:02:44;;;;;;;7.22;2.75;;;;;;;-3.75;100.00;98436.59;4523897;31;20155;-78
2024/01/08 08:05:11;;;;;;;2.75;1.95;;;;;;;-3.72;100.00;98449.28;4520273;31;20104;-75
2024/01/08 08:07:39;;;;;;;3.78;2.05;;;;;;;-3.61;100.00;98446.34;4527232;31;20111;-77
2024/01/08 08:10:07;;;;;;;2.17;1.75;;;;;;;-3.67;100.00;98454.25;4522896;31;20400;-77
2024/01/08 08:12:34;;;;;;;4.25;3.53;;;;;;;-3.59;100.00;98465.03;4518453;31;20134;-78
2024/01/08 08:15:04;;;;;;;4.55;2.40;;;;;;;-3.51;100.00;98464.75;4530891;31;20079;-77
2024/01/08 08:17:34;;;;;;;6.10;3.15;;;;;;;-3.40;100.00;98470.31;4524691;31;20123;-77
2024/01/08 08:20:05;;;;;;;2.50;0.98;;;;;;;-3.45;100.00;98470.47;4535040;31;20079;-76
2024/01/08 08:22:32;;;;;;;4.85;2.85;;;;;;;-3.39;100.00;98469.44;4524336;31;20114;-77
2024/01/08 08:25:01;;;;;;;1.02;0.82;;;;;;;-3.42;100.00;98480.62;4524514;31;20087;-77
2024/01/08 08:27:32;;;;;;;2.50;1.98;;;;;;;-3.34;100.00;98476.94;4524015;31;20117;-76
2024/01/08 08:29:59;;;;;;;2.90;2.70;;;;;;;-3.27;100.00;98483.47;4528637;31;20467;-76
2024/01/08 08:32:27;;;;;;;10.40;4.47;;;;;;;-3.23;100.00;98491.00;4521624;31;20596;-76
2024/01/08 08:34:55;;;;;;;0.80;0.47;;;;;;;-3.32;100.00;98499.03;4521909;31;20462;-78
2024/01/08 08:37:23;;;;;;;6.80;4.10;;;;;;;-3.19;100.00;98490.88;4517804;31;20111;-75
2024/01/08 08:40:12;;;;;;;2.00;1.85;;;;;;;-3.23;100.00;98508.09;4519920;31;21859;-76
2024/01/08 08:42:41;;;;;;;1.30;1.20;;;;;;;-3.16;100.00;98496.72;4519266;31;20110;-78
2024/01/08 08:45:09;;;;;;;0.95;0.90;;;;;;;-3.11;100.00;98497.38;4504937;31;20083;-77
2024/01/08 08:47:38;;;;;;;1.75;1.08;;;;;;;-3.09;100.00;98502.44;4521736;31;20103;-78
2024/01/08 08:50:12;;;;;;;2.47;1.77;;;;;;;-3.09;100.00;98510.13;4524126;31;20121;-75
2024/01/08 08:52:39;;;;;;;4.85;2.17;;;;;;;-3.26;100.00;98508.22;4525433;31;20107;-78
2024/01/08 08:55:07;;;;;;;8.20;2.95;;;;;;;-3.15;100.00;98507.81;4521687;31;20072;-76
2024/01/08 08:57:40;;;;;;;3.47;1.83;;;;;;;-3.24;100.00;98514.97;4524762;31;20118;-77
2024/01/08 09:00:11;;;;;;;8.27;3.33;;;;;;;-3.17;100.00;98515.53;4524170;31;20088;-74
2024/01/08 09:02:42;;;;;;;1.65;0.55;;;;;;;-3.11;100.00;98511.94;4523864;31;20511;-74
2024/01/08 09:05:09;;;;;;;0.70;0.70;;;;;;;-3.00;100.00;98516.66;4529173;31;20624;-76
2024/01/08 09:07:37;;;;;;;14.18;6.30;;;;;;;-3.05;100.00;98519.38;4528670;31;20099;-74
2024/01/08 09:10:05;;;;;;;4.62;3.25;;;;;;;-3.15;100.00;98518.91;4523252;31;20103;-77
2024/01/08 09:12:32;;;;;;;3.42;2.87;;;;;;;-3.17;100.00;98523.25;4523661;31;20129;-76
2024/01/08 09:14:59;;;;;;;5.62;2.37;;;;;;;-3.24;100.00;98526.91;4518974;31;20166;-77
2024/01/08 09:17:29;;;;;;;2.30;1.83;;;;;;;-3.16;100.00;98527.47;4535015;31;20103;-77
2024/01/08 09:19:57;;;;;;;3.00;2.75;;;;;;;-3.23;100.00;98524.28;4522124;31;20108;-78
2024/01/08 09:22:25;;;;;;;7.45;3.12;;;;;;;-3.21;100.00;98530.22;4516730;31;20099;-79
2024/01/08 09:24:54;;;;;;;7.28;5.40;;;;;;;-3.30;100.00;98537.37;4516664;31;20489;-79
2024/01/08 09:27:21;;;;;;;2.05;1.87;;;;;;;-3.24;100.00;98534.59;4520311;31;20111;-74
2024/01/08 09:29:49;;;;;;;2.87;2.60;;;;;;;-3.26;100.00;98537.22;4515655;31;20175;-75
2024/01/08 09:32:16;;;;;;;5.07;3.30;;;;;;;-3.27;100.00;98545.81;4516953;31;20096;-77
2024/01/08 09:34:45;;;;;;;5.87;3.08;;;;;;;-3.21;100.00;98537.03;4518407;31;20096;-77
2024/01/08 09:37:13;;;;;;;9.85;3.85;;;;;;;-3.18;100.00;98536.94;4516884;31;20103;-76
2024/01/08 09:39:40;;;;;;;3.78;2.87;;;;;;;-3.20;100.00;98528.47;4521427;31;20174;-77
2024/01/08 09:42:08;;;;;;;2.33;2.00;;;;;;;-3.23;100.00;98541.41;4524412;31;20127;-76
2024/01/08 09:44:37;;;;;;;7.35;3.25;;;;;;;-3.12;100.00;98536.72;4525529;31;20095;-77
2024/01/08 09:47:05;;;;;;;3.08;1.30;;;;;;;-3.06;100.00;98527.94;4513881;31;20104;-80
2024/01/08 09:49:35;;;;;;;4.65;2.97;;;;;;;-2.99;100.00;98529.41;4526978;31;20403;-78
2024/01/08 09:52:04;;;;;;;2.12;1.60;;;;;;;-3.03;100.00;98538.94;4505247;31;20126;-77
2024/01/08 09:54:33;;;;;;;4.62;2.75;;;;;;;-2.97;100.00;98526.78;4526013;31;20106;-78
2024/01/08 09:57:02;;;;;;;5.20;1.48;;;;;;;-2.87;100.00;98528.09;4519559;31;20091;-75
2024/01/08 09:59:31;;;;;;;5.37;2.62;;;;;;;-2.95;100.00;98524.97;4519148;31;20109;-76
2024/01/08 10:01:59;;;;;;;5.50;3.08;;;;;;;-2.91;100.00;98539.34;4520024;31;20466;-75
2024/01/08 10:04:27;;;;;;;4.03;2.90;;;;;;;-2.75;100.00;98525.06;4517369;31;20133;-74
2024/01/08 10:07:08;;;;;;;8.38;3.58;;;;;;;-2.75;100.00;98525.06;4521762;31;20766;-76
2024/01/08 10:09:36;;;;;;;8.23;5.03;;;;;;;-2.74;100.00;98536.13;4518392;31;20092;-76
2024/01/08 10:12:06;;;;;;;1.85;1.30;;;;;;;-2.66;100.00;98534.12;4522635;31;20119;-75
2024/01/08 10:14:35;;;;;;;3.28;1.80;;;;;;;-2.51;100.00;98525.00;4508882;31;20114;-74
2024/01/08 10:17:03;;;;;;;5.05;3.12;;;;;;;-2.43;100.00;98538.34;4529909;31;20099;-77
2024/01/08 10:19:30;;;;;;;2.92;1.45;;;;;;;-2.32;100.00;98531.06;4515194;31;20168;-75
2024/01/08 10:22:09;;;;;;;2.75;1.90;;;;;;;-2.30;100.00;98527.56;4520840;31;20463;-75
2024/01/08 10:24:38;;;;;;;3.95;2.05;;;;;;;-2.28;100.00;98530.94;4520732;31;20068;-75
2024/01/08 10:27:07;;;;;;;5.05;1.10;;;;;;;-2.28;100.00;98525.81;4516121;31;20163;-76
2024/01/08 10:29:37;;;;;;;3.80;1.77;;;;;;;-2.24;100.00;98527.31;4522110;31;20161;-77
2024/01/08 10:32:06;;;;;;;4.72;2.58;;;;;;;-2.15;100.00;98527.78;4523870;31;20132;-77
2024/01/08 10:34:36;;;;;;;1.02;1.02;;;;;;;-2.16;100.00;98515.03;4520039;31;20456;-74
2024/01/08 10:37:05;;;;;;;4.32;3.28;;;;;;;-2.12;100.00;98526.00;4521052;31;20130;-78
2024/01/08 10:39:34;;;;;;;1.98;1.05;;;;;;;-2.07;100.00;98521.50;4505389;31;20104;-75
2024/01/08 10:42:17;;;;;;;6.20;2.87;;;;;;;-1.94;100.00;98526.94;4521698;31;20138;-75
2024/01/08 10:44:45;;;;;;;8.38;2.92;;;;;;;-2.00;100.00;98525.47;4524447;31;20107;-75
2024/01/08 10:47:19;;;;;;;3.20;2.40;;;;;;;-2.05;100.00;98520.53;4517856;31;20123;-73
2024/01/08 10:49:54;;;;;;;4.32;3.75;;;;;;;-1.92;100.00;98535.41;4517500;31;20147;-75
2024/01/08 10:52:28;;;;;;;6.47;2.72;;;;;;;-1.91;100.00;98532.78;4521227;31;20108;-78
2024/01/08 10:54:57;;;;;;;1.77;1.50;;;;;;;-1.98;100.00;98528.81;4522988;31;20468;-76
2024/01/08 10:57:51;;;;;;;1.87;1.58;;;;;;;-1.85;100.00;98549.66;4519253;31;20103;-77
2024/01/08 11:00:19;;;;;;;1.40;0.85;;;;;;;-1.78;100.00;98545.94;4495190;31;20107;-76
2024/01/08 11:02:46;;;;;;;2.85;1.15;;;;;;;-1.67;100.00;98556.56;4506923;31;20605;-73
2024/01/08 11:05:14;;;;;;;0.82;0.70;;;;;;;-1.82;100.00;98534.12;4523010;31;20175;-75
2024/01/08 11:07:43;;;;;;;2.92;2.50;;;;;;;-1.85;100.00;98534.25;4524146;31;20598;-75
2024/01/08 11:10:11;;;;;;;2.42;1.77;;;;;;;-1.89;100.00;98548.97;4507915;31;20176;-78
2024/01/08 11:12:42;;;;;;;8.15;5.47;;;;;;;-1.98;100.00;98544.22;4517262;31;20186;-75
2024/01/08 11:15:14;;;;;;;5.65;3.53;;;;;;;-2.08;100.00;98545.50;4526987;31;20087;-76
2024/01/08 11:17:52;;;;;;;0.95;0.65;;;;;;;-2.09;100.00;98547.25;4527974;31;20222;-76
2024/01/08 11:20:38;;;;;;;2.35;1.60;;;;;;;-2.05;100.00;98543.63;4524351;31;20083;-75
2024/01/08 11:23:40;;;;;;;3.17;2.55;;;;;;;-1.92;100.00;98545.69;4517990;31;20167;-75
2024/01/08 11:26:22;;;;;;;5.55;3.00;;;;;;;-1.92;100.00;98543.13;4449043;32;20459;-75
2024/01/08 11:29:03;;;;;;;5.55;3.87;;;;;;;-2.02;100.00;98547.81;4435243;32;20113;-74
2024/01/08 11:31:39;;;;;;;5.45;3.15;;;;;;;-2.09;100.00;98546.38;4428271;32;20204;-76
2024/01/08 11:34:28;;;;;;;3.92;2.10;;;;;;;-1.88;100.00;98552.37;4435929;32;20105;-75
2024/01/08 11:37:06;;;;;;;4.50;2.33;;;;;;;-1.86;100.00;98573.66;4433581;32;20093;-75
2024/01/08 11:39:38;;;;;;;4.97;1.80;;;;;;;-1.69;100.00;98560.97;4432254;32;20598;-76
2024/01/08 11:42:09;;;;;;;2.42;1.20;;;;;;;-1.64;100.00;98571.84;4431328;32;20109;-75
2024/01/08 11:44:38;;;;;;;0.85;0.85;;;;;;;-1.73;100.00;98564.53;4429118;32;20525;-75
2024/01/08 11:47:06;;;;;;;2.70;1.50;;;;;;;-1.43;100.00;98567.53;4428567;32;20110;-74
2024/01/08 11:49:37;;;;;;;3.22;1.92;;;;;;;-1.23;100.00;98567.56;4433504;32;20129;-75
2024/01/08 11:52:08;;;;;;;4.50;2.47;;;;;;;-1.13;100.00;98563.69;4433435;32;21349;-76
2024/01/08 11:54:36;;;;;;;3.47;1.50;;;;;;;-1.21;100.00;98570.91;4431633;32;20581;-76
2024/01/08 11:57:03;;;;;;;7.30;4.82;;;;;;;-1.21;100.00;98564.03;4433710;32;20110;-76
2024/01/08 11:59:32;;;;;;;2.35;1.48;;;;;;;-1.28;100.00;98573.75;4407278;32;20105;-77
2024/01/08 12:02:15;;;;;;;5.28;2.25;;;;;;;-1.29;100.00;98571.25;4435285;32;20117;-75
2024/01/08 12:04:55;;;;;;;3.37;1.52;;;;;;;-1.31;100.00;98571.31;4463962;32;20214;-75
2024/01/08 12:07:23;;;;;;;4.60;2.65;;;;;;;-1.29;100.00;98584.94;4462627;32;20213;-75
2024/01/08 12:09:52;;;;;;;2.55;1.75;;;;;;;-1.34;100.00;98589.44;4463882;32;20170;-76
2024/01/08 12:12:20;;;;;;;5.70;2.37;;;;;;;-1.44;100.00;98594.16;4465114;32;20135;-77
2024/01/08 12:14:49;;;;;;;2.62;1.98;;;;;;;-1.48;100.00;98572.03;4491744;31;20165;-77
2024/01/08 12:17:18;;;;;;;3.15;2.35;;;;;;;-1.49;100.00;98588.34;4512853;31;20592;-77
2024/01/08 12:19:54;;;;;;;3.10;1.70;;;;;;;-1.46;100.00;98585.66;4511679;31;20423;-77
2024/01/08 12:22:23;;;;;;;4.40;2.67;;;;;;;-1.51;100.00;98585.03;4510626;31;20812;-77
2024/01/08 12:24:55;;;;;;;3.05;1.33;;;;;;;-1.56;100.00;98588.69;4509668;31;20130;-78
2024/01/08 12:27:25;;;;;;;10.85;4.62;;;;;;;-1.52;100.00;98582.53;4510404;31;20091;-78
2024/01/08 12:29:57;;;;;;;15.65;6.25;;;;;;;-1.56;100.00;98586.13;4503651;31;20091;-78
2024/01/08 12:32:26;;;;;;;11.15;5.15;;;;;;;-1.67;100.00;98574.56;4503651;31;20099;-78
2024/01/08 12:34:55;;;;;;;13.65;5.18;;;;;;;-1.67;100.00;98578.88;4504706;31;20139;-78
2024/01/08 12:37:25;;;;;;;15.52;6.00;;;;;;;-1.72;100.00;98581.63;4503909;31;20118;-77
2024/01/08 12:39:52;;;;;;;16.10;6.75;;;;;;;-1.77;100.00;98583.56;4507211;31;20095;-78
2024/01/08 12:42:20;;;;;;;9.75;5.18;;;;;;;-1.75;100.00;98576.63;4516412;31;20163;-78
2024/01/08 12:44:50;;;;;;;14.55;5.62;;;;;;;-1.76;100.00;98587.78;4502685;31;20711;-78
2024/01/08 12:47:18;;;;;;;13.90;5.35;;;;;;;-1.76;100.00;98590.34;4501278;31;20164;-78
2024/01/08 12:49:48;;;;;;;14.40;6.45;;;;;;;-1.77;100.00;98588.72;4505187;31;20117;-78
2024/01/08 12:52:16;;;;;;;10.88;5.43;;;;;;;-1.81;100.00;98587.16;4507301;31;20601;-78
2024/01/08 12:54:44;;;;;;;12.63;4.90;;;;;;;-1.76;100.00;98585.22;4504990;31;20118;-77
2024/01/08 12:57:13;;;;;;;12.43;5.30;;;;;;;-1.76;100.00;98590.34;4498530;31;20096;-77
2024/01/08 12:59:59;;;;;;;12.82;5.53;;;;;;;-1.75;100.00;98601.47;4502295;31;20163;-77
2024/01/08 13:02:31;;;;;;;8.70;4.68;;;;;;;-1.79;100.00;98595.62;4504097;31;20099;-76
2024/01/08 13:05:00;;;;;;;13.07;5.70;;;;;;;-1.74;100.00;98601.41;4511184;31;20088;-76
2024/01/08 13:07:28;;;;;;;12.00;5.43;;;;;;;-1.80;100.00;98604.25;4497260;31;20084;-77
2024/01/08 13:09:57;;;;;;;13.88;4.80;;;;;;;-1.71;100.00;98609.00;4506667;31;20146;-76
2024/01/08 13:12:24;;;;;;;11.80;5.18;;;;;;;-1.67;100.00;98613.09;4501234;31;20633;-76
2024/01/08 13:14:52;;;;;;;17.87;6.03;;;;;;;-1.65;100.00;98613.87;4502822;31;20112;-77
2024/01/08 13:17:22;;;;;;;22.37;7.43;;;;;;;-1.59;100.00;98615.31;4499942;31;20160;-76
2024/01/08 13:19:52;;;;;;;9.98;4.97;;;;;;;-1.53;100.00;98617.66;4508850;31;20103;-75
2024/01/08 13:22:28;;;;;;;16.17;5.57;;;;;;;-1.43;100.00;98618.09;4506383;31;20096;-74
2024/01/08 13:24:59;;;;;;;10.50;4.43;;;;;;;-1.23;100.00;98613.84;4509037;31;20147;-75
2024/01/08 13:27:26;;;;;;;10.52;5.53;;;;;;;-1.15;100.00;98627.16;4508866;31;20088;-75
2024/01/08 13:29:56;;;;;;;9.10;4.03;;;;;;;-1.27;100.00;98629.37;4493024;31;20720;-76
2024/01/08 13:32:23;;;;;;;17.80;4.87;;;;;;;-1.33;100.00;98632.22;4506349;31;20083;-76
2024/01/08 13:34:51;;;;;;;11.25;5.35;;;;;;;-1.45;100.00;98643.03;4507558;31;20100;-75
2024/01/08 13:37:18;;;;;;;11.55;4.35;;;;;;;-1.43;100.00;98638.66;4504329;31;20437;-75
2024/01/08 13:39:48;;;;;;;11.77;5.57;;;;;;;-1.44;100.00;98636.97;4504407;31;20121;-75
2024/01/08 13:42:17;;;;;;;12.00;5.40;;;;;;;-1.42;100.00;98642.91;4500728;31;20091;-75
2024/01/08 13:44:44;;;;;;;14.27;5.37;;;;;;;-1.52;100.00;98639.03;4492008;31;20122;-76
2024/01/08 13:47:11;;;;;;;13.98;5.03;;;;;;;-1.61;100.00;98641.06;4509644;31;20106;-75
2024/01/08 13:49:40;;;;;;;13.57;5.30;;;;;;;-1.63;100.00;98649.75;4504317;31;20163;-75
2024/01/08 13:52:08;;;;;;;12.90;6.05;;;;;;;-1.80;100.00;98643.59;4506643;31;20079;-75
2024/01/08 13:54:37;;;;;;;9.93;4.12;;;;;;;-1.79;100.00;98652.97;4496795;31;20118;-75
2024/01/08 13:57:05;;;;;;;9.93;5.32;;;;;;;-1.80;100.00;98661.56;4502092;31;20134;-75
2024/01/08 13:59:33;;;;;;;11.95;5.10;;;;;;;-1.84;100.00;98660.00;4508788;31;20103;-75
2024/01/08 14:02:00;;;;;;;12.88;5.18;;;;;;;-1.89;100.00;98666.22;4503215;31;20561;-74
2024/01/08 14:04:28;;;;;;;15.20;5.72;;;;;;;-1.95;100.00;98669.88;4510829;31;20096;-75
2024/01/08 14:06:56;;;;;;;13.30;6.43;;;;;;;-1.97;100.00;98669.09;4511034;31;20096;-75
2024/01/08 14:09:23;;;;;;;10.38;4.95;;;;;;;-2.05;100.00;98666.00;4506661;31;20157;-75
2024/01/08 14:11:51;;;;;;;15.43;6.10;;;;;;;-2.07;100.00;98678.91;4507694;31;20112;-76
2024/01/08 14:14:18;;;;;;;11.70;4.93;;;;;;;-2.06;100.00;98684.84;4500904;31;20159;-76
2024/01/08 14:16:53;;;;;;;9.55;4.07;;;;;;;-1.98;100.00;98690.53;4504148;31;20138;-75
2024/01/08 14:19:22;;;;;;;14.93;5.85;;;;;;;-1.92;100.00;98694.56;4504329;31;20096;-79
2024/01/08 14:21:49;;;;;;;14.23;5.82;;;;;;;-1.98;100.00;98695.69;4504902;31;20179;-78
2024/01/08 14:24:19;;;;;;;12.93;5.72;;;;;;;-1.96;100.00;98702.41;4507340;31;20216;-78
2024/01/08 14:26:47;;;;;;;16.42;6.87;;;;;;;-1.95;100.00;98703.25;4506543;31;20750;-78
2024/01/08 14:29:14;;;;;;;17.75;6.05;;;;;;;-1.92;100.00;98708.28;4506472;31;20163;-78
2024/01/08 14:31:41;;;;;;;10.73;4.70;;;;;;;-1.93;100.00;98703.19;4504200;31;20091;-77
2024/01/08 14:34:09;;;;;;;16.50;5.55;;;;;;;-1.99;100.00;98707.66;4507884;31;20130;-77
2024/01/08 14:36:37;;;;;;;11.65;5.68;;;;;;;-2.00;100.00;98711.13;4506929;31;20172;-76
2024/01/08 14:39:04;;;;;;;14.65;6.78;;;;;;;-2.08;100.00;98713.16;4508891;31;20152;-78
2024/01/08 14:41:32;;;;;;;14.50;5.47;;;;;;;-2.06;100.00;98713.94;4509921;31;20104;-79
2024/01/08 14:44:00;;;;;;;13.35;5.50;;;;;;;-2.10;100.00;98717.53;4508527;31;20444;-77
2024/01/08 14:46:27;;;;;;;13.82;5.93;;;;;;;-2.08;100.00;98715.72;4508576;31;20092;-79
2024/01/08 14:48:57;;;;;;;12.75;5.60;;;;;;;-2.10;100.00;98714.97;4509464;31;20110;-79
2024/01/08 14:51:24;;;;;;;12.15;5.35;;;;;;;-2.14;100.00;98728.78;4505203;31;20114;-79
2024/01/08 14:53:51;;;;;;;9.38;4.65;;;;;;;-2.17;100.00;98728.91;4502977;31;20159;-78
2024/01/08 14:56:18;;;;;;;12.45;6.10;;;;;;;-2.19;100.00;98734.09;4508655;31;20084;-78
2024/01/08 14:58:46;;;;;;;13.52;5.82;;;;;;;-2.15;100.00;98738.22;4506371;31;20129;-77
2024/01/08 15:01:16;;;;;;;16.00;5.78;;;;;;;-2.18;100.00;98742.63;4506885;31;20174;-77
2024/01/08 15:03:45;;;;;;;9.10;4.87;;;;;;;-2.29;100.00;98753.28;4503705;31;20140;-77
2024/01/08 15:06:12;;;;;;;14.77;6.22;;;;;;;-2.30;100.00;98748.22;4505863;31;20635;-77
2024/01/08 15:08:41;;;;;;;12.68;4.87;;;;;;;-2.28;100.00;98752.41;4504029;31;20095;-77
2024/01/08 15:11:09;;;;;;;7.28;3.97;;;;;;;-2.33;100.00;98769.72;4507144;31;20138;-77
2024/01/08 15:13:36;;;;;;;13.68;5.30;;;;;;;-2.32;100.00;98773.94;4504715;31;20098;-76
2024/01/08 15:16:05;;;;;;;13.48;6.20;;;;;;;-2.32;100.00;98779.91;4504489;31;20080;-75
2024/01/08 15:18:33;;;;;;;11.80;5.45;;;;;;;-2.32;100.00;98771.38;4507210;31;20163;-75
2024/01/08 15:21:02;;;;;;;15.88;5.32;;;;;;;-2.36;100.00;98770.66;4508210;31;20092;-75
2024/01/08 15:23:36;;;;;;;11.40;5.62;;;;;;;-2.38;100.00;98769.84;4508733;31;20522;-75
2024/01/08 15:26:05;;;;;;;;;;;;;;;-2.40;100.00;98779.34;4509354;31;20107;-75
2024/01/08 15:28:37;;;;;;;6.85;3.85;;;;;;;-2.33;100.00;98785.09;4508295;31;19990;-75
2024/01/08 15:31:04;;;;;;;12.95;4.37;;;;;;;-2.37;100.00;98786.94;4507213;31;20095;-74
2024/01/08 15:33:34;;;;;;;14.32;5.05;;;;;;;-2.36;100.00;98786.03;4504733;31;20195;-75
2024/01/08 15:36:03;;;;;;;12.43;5.10;;;;;;;-2.37;100.00;98792.06;4510267;31;20125;-73
2024/01/08 15:38:31;;;;;;;11.00;5.03;;;;;;;-2.43;100.00;98789.72;4509421;31;20095;-73
2024/01/08 15:40:59;;;;;;;8.93;4.60;;;;;;;-2.46;100.00;98789.84;4509966;31;20452;-73
2024/01/08 15:43:26;;;;;;;15.65;5.95;;;;;;;-2.45;100.00;98803.47;4507763;31;20108;-73
2024/01/08 15:45:55;;;;;;;10.07;4.65;;;;;;;-2.51;100.00;98802.00;4510644;31;20152;-75
2024/01/08 15:48:22;;;;;;;11.38;5.45;;;;;;;-2.47;100.00;98803.53;4506014;31;20100;-74
2024/01/08 15:50:50;;;;;;;17.30;5.80;;;;;;;-2.51;100.00;98817.38;4510095;31;20099;-74
2024/01/08 15:53:21;;;;;;;12.70;5.07;;;;;;;-2.59;100.00;98812.53;4508642;31;20087;-73
2024/01/08 15:55:49;;;;;;;14.55;5.55;;;;;;;-2.62;100.00;98822.03;4507438;31;20084;-73
2024/01/08 15:58:16;;;;;;;8.07;4.57;;;;;;;-2.60;100.00;98827.97;4508808;31;20532;-73
2024/01/08 16:00:44;;;;;;;12.82;6.28;;;;;;;-2.63;100.00;98833.22;4508494;31;20087;-74
2024/01/08 16:03:15;;;;;;;13.07;5.90;;;;;;;-2.68;100.00;98834.19;4507984;31;20110;-73
2024/01/08 16:05:42;;;;;;;19.00;6.30;;;;;;;-2.68;100.00;98841.87;4508615;31;20122;-73
2024/01/08 16:08:12;;;;;;;8.13;4.43;;;;;;;-2.71;100.00;98849.69;4508771;31;20183;-73
2024/01/08 16:10:39;;;;;;;13.13;6.05;;;;;;;-2.70;100.00;98851.34;4502384;31;20095;-73
2024/01/08 16:13:06;;;;;;;11.05;4.65;;;;;;;-2.76;100.00;98859.25;4514271;31;20127;-73
2024/01/08 16:15:34;;;;;;;17.10;6.65;;;;;;;-2.78;100.00;98855.91;4508857;31;20092;-73
2024/01/08 16:18:01;;;;;;;10.30;4.87;;;;;;;-2.82;100.00;98864.56;4498115;31;20130;-72
2024/01/08 16:20:30;;;;;;;11.25;4.28;;;;;;;-2.84;100.00;98873.22;4496945;31;20164;-72
2024/01/08 16:22:58;;;;;;;12.13;5.40;;;;;;;-2.87;100.00;98872.41;4510637;31;20581;-72
2024/01/08 16:25:27;;;;;;;16.70;6.28;;;;;;;-2.80;100.00;98882.47;4511992;31;20155;-72
2024/01/08 16:27:56;;;;;;;13.70;5.45;;;;;;;-2.77;100.00;98880.66;4513445;31;20112;-72
2024/01/08 16:30:23;;;;;;;16.70;4.78;;;;;;;-2.78;100.00;98886.66;4503995;31;20091;-72
2024/01/08 16:32:51;;;;;;;17.10;5.30;;;;;;;-2.80;100.00;98890.16;4511137;31;20460;-72
2024/01/08 16:35:19;;;;;;;17.30;6.90;;;;;;;-2.86;100.00;98893.78;4515774;31;20096;-73
2024/01/08 16:37:47;;;;;;;13.55;4.90;;;;;;;-2.88;100.00;98896.41;4516090;31;20100;-72
2024/01/08 16:40:14;;;;;;;13.30;5.35;;;;;;;-2.89;100.00;98896.44;4511867;31;20490;-73
2024/01/08 16:42:42;;;;;;;14.48;5.45;;;;;;;-2.87;100.00;98898.06;4499567;31;20171;-72
2024/01/08 16:45:13;;;;;;;16.75;7.05;;;;;;;-2.86;100.00;98910.00;4498913;31;20133;-72
2024/01/08 16:47:41;;;;;;;16.02;6.82;;;;;;;-2.84;100.00;98906.56;4514878;31;20096;-72
2024/01/08 16:50:20;;;;;;;15.27;6.07;;;;;;;-2.84;100.00;98909.94;4514987;31;20130;-72
2024/01/08 16:52:49;;;;;;;18.70;7.60;;;;;;;-2.78;100.00;98912.31;4515039;31;20113;-72
2024/01/08 16:55:17;;;;;;;21.35;8.52;;;;;;;-2.89;100.00;98929.78;4500444;31;20138;-72
2024/01/08 16:57:44;;;;;;;27.05;8.48;;;;;;;-3.10;100.00;98926.16;4515191;31;20088;-72
2024/01/08 17:00:16;;;;;;;19.45;8.30;;;;;;;-3.29;100.00;98931.81;4515300;31;20113;-72
2024/01/08 17:02:48;;;;;;;23.92;8.95;;;;;;;-3.39;100.00;98931.28;4515608;31;20102;-72
2024/01/08 17:05:15;;;;;;;21.60;8.73;;;;;;;-3.42;100.00;98935.66;4515679;31;20164;-72
2024/01/08 17:07:45;;;;;;;19.50;8.52;;;;;;;-3.50;100.00;98930.72;4515550;31;20396;-72
2024/01/08 17:10:12;;;;;;;28.23;9.57;;;;;;;-3.60;100.00;98939.59;4515845;31;20091;-72